Almaty, Kazakhstan
Current Conditions -  °F | °C
As of 9:00 PM on Friday 19 Dec 2014 (Local Time) from UAAA Reporting Station
Smoke Smoke  
Wind Chill: -4°   Ceiling: 10000
Heat Index: -4°   Visibility: 0.37mi
Dew Point: -7°   Wind: 2mph
Humidity: 80%   Direction: 170°S
Pressure: 30.3"   Gusts: NA
Location:  43.32°N, 76.92°E
Report Text: UAAA 191500Z 17001MPS 0600 R23R/1800N R23L/1600N BR FU BKN100OVC200 M04/M07 Q1026 R88/81//60 TEMPO 0300 BR FU
Loading
Personal Weather Stations






























Interactive Weather Map New forecast layout! Learn more

10-Day Weather Forecast

Advertisements
Track Severe Weather on mobile